createdAt,value
2017-11-09T00:01:33.227Z,8.33
2017-11-09T00:04:06.295Z,10.20
2017-11-09T00:06:33.822Z,7.07
2017-11-09T00:09:06.358Z,7.40
2017-11-09T00:11:33.882Z,9.83
2017-11-09T00:14:01.492Z,8.33
2017-11-09T00:16:28.988Z,8.30
2017-11-09T00:18:56.495Z,11.93
2017-11-09T00:21:23.998Z,9.10
2017-11-09T00:23:51.508Z,11.03
2017-11-09T00:26:19.016Z,15.27
2017-11-09T00:28:46.528Z,9.23
2017-11-09T00:31:14.050Z,9.77
2017-11-09T00:33:41.543Z,8.70
2017-11-09T00:36:09.042Z,7.13
2017-11-09T00:38:36.551Z,13.90
2017-11-09T00:41:04.067Z,9.50
2017-11-09T00:43:31.572Z,9.77
2017-11-09T00:45:59.070Z,11.40
2017-11-09T00:48:26.566Z,9.80
2017-11-09T00:50:54.080Z,13.03
2017-11-09T00:53:21.582Z,10.53
2017-11-09T00:55:49.081Z,9.33
2017-11-09T00:58:16.597Z,9.10
2017-11-09T01:00:44.102Z,10.00
2017-11-09T01:03:11.601Z,11.73
2017-11-09T01:05:39.092Z,12.03
2017-11-09T01:08:06.580Z,9.77
2017-11-09T01:10:34.494Z,9.13
2017-11-09T01:13:01.974Z,9.97
2017-11-09T01:15:29.482Z,8.77
2017-11-09T01:17:56.966Z,11.97
2017-11-09T01:20:24.446Z,9.37
2017-11-09T01:22:51.942Z,15.67
2017-11-09T01:25:19.421Z,10.33
2017-11-09T01:27:46.924Z,12.33
2017-11-09T01:30:14.432Z,13.63
2017-11-09T01:32:41.923Z,23.43
2017-11-09T01:35:09.436Z,12.47
2017-11-09T01:37:36.943Z,17.50
2017-11-09T01:40:04.448Z,20.73
2017-11-09T01:42:31.938Z,23.27
2017-11-09T01:44:59.447Z,16.00
2017-11-09T01:47:26.942Z,17.63
2017-11-09T01:49:54.451Z,17.10
2017-11-09T01:52:21.956Z,16.90
2017-11-09T01:54:49.467Z,16.43
2017-11-09T01:57:16.971Z,18.43
2017-11-09T01:59:44.487Z,15.27
2017-11-09T02:02:11.991Z,17.00
2017-11-09T02:04:39.528Z,15.50
2017-11-09T02:07:07.044Z,20.83
2017-11-09T02:09:34.574Z,21.23
2017-11-09T02:12:02.089Z,22.90
2017-11-09T02:14:29.604Z,24.50
2017-11-09T02:16:57.120Z,20.97
2017-11-09T02:19:24.619Z,16.00
2017-11-09T02:21:52.133Z,15.60
2017-11-09T02:24:19.636Z,13.40
2017-11-09T02:26:47.141Z,11.70
2017-11-09T02:29:14.660Z,20.43
2017-11-09T02:31:42.159Z,12.63
2017-11-09T02:34:09.671Z,15.50
2017-11-09T02:36:37.195Z,12.83
2017-11-09T02:39:04.703Z,15.40
2017-11-09T02:41:32.234Z,10.87
2017-11-09T02:43:59.754Z,16.37
2017-11-09T02:46:27.276Z,15.30
2017-11-09T02:48:54.779Z,14.50
2017-11-09T02:51:22.297Z,14.63
2017-11-09T02:53:49.814Z,13.03
2017-11-09T02:56:17.334Z,14.27
2017-11-09T02:58:44.854Z,12.50
2017-11-09T03:01:12.396Z,11.73
2017-11-09T03:03:39.914Z,11.23
2017-11-09T03:06:08.268Z,11.53
2017-11-09T03:08:35.808Z,17.43
2017-11-09T03:11:03.342Z,17.17
2017-11-09T03:13:30.856Z,16.10
2017-11-09T03:15:58.366Z,17.50
2017-11-09T03:18:25.875Z,17.97
2017-11-09T03:20:53.378Z,17.40
2017-11-09T03:23:20.867Z,18.13
2017-11-09T03:25:48.368Z,13.40
2017-11-09T03:28:15.896Z,15.83
2017-11-09T03:30:43.391Z,11.60
2017-11-09T03:33:10.908Z,11.90
2017-11-09T03:35:38.412Z,11.53
2017-11-09T03:38:05.926Z,10.43
2017-11-09T03:40:33.440Z,13.33
2017-11-09T03:43:00.963Z,12.70
2017-11-09T03:45:28.475Z,14.60
2017-11-09T03:47:56.002Z,17.60
2017-11-09T03:50:23.523Z,13.60
2017-11-09T03:52:51.041Z,12.47
2017-11-09T03:55:18.546Z,11.50
2017-11-09T03:57:46.089Z,11.77
2017-11-09T04:00:13.598Z,18.03
2017-11-09T04:02:41.122Z,13.60
2017-11-09T04:05:08.649Z,15.70
2017-11-09T04:07:36.164Z,11.33
2017-11-09T04:10:04.043Z,11.27
2017-11-09T04:12:31.559Z,10.33
2017-11-09T04:14:59.055Z,9.40
2017-11-09T04:17:26.582Z,10.17
2017-11-09T04:19:54.085Z,9.80
2017-11-09T04:22:21.592Z,11.27
2017-11-09T04:24:49.081Z,10.43
2017-11-09T04:27:16.611Z,11.33
2017-11-09T04:29:44.110Z,10.80
2017-11-09T04:32:11.620Z,12.80
2017-11-09T04:34:39.118Z,14.00
2017-11-09T04:37:06.615Z,13.00
2017-11-09T04:39:34.121Z,15.33
2017-11-09T04:42:01.624Z,12.17
2017-11-09T04:44:29.127Z,14.80
2017-11-09T04:46:56.659Z,13.10
2017-11-09T04:49:24.166Z,11.40
2017-11-09T04:51:51.693Z,12.93
2017-11-09T04:54:19.204Z,12.07
2017-11-09T04:56:46.703Z,9.63
2017-11-09T04:59:14.203Z,13.20
2017-11-09T05:01:41.704Z,10.63
2017-11-09T05:04:09.235Z,11.50
2017-11-09T05:06:36.736Z,9.60
2017-11-09T05:09:04.249Z,11.10
2017-11-09T05:11:31.804Z,9.33
2017-11-09T05:13:59.306Z,10.03
2017-11-09T05:16:26.795Z,13.57
2017-11-09T05:18:54.320Z,12.07
2017-11-09T05:21:21.832Z,9.80
2017-11-09T05:23:49.335Z,9.07
2017-11-09T05:26:16.850Z,18.30
2017-11-09T05:28:44.347Z,9.60
2017-11-09T05:31:11.839Z,9.43
2017-11-09T05:33:39.346Z,11.80
2017-11-09T05:36:06.845Z,14.50
2017-11-09T05:38:34.373Z,15.13
2017-11-09T05:41:01.866Z,10.47
2017-11-09T05:43:29.405Z,13.63
2017-11-09T05:45:57.015Z,16.53
2017-11-09T05:48:24.512Z,12.93
2017-11-09T05:50:52.021Z,19.00
2017-11-09T05:53:19.588Z,14.30
2017-11-09T05:55:47.193Z,11.93
2017-11-09T05:58:14.718Z,15.53
2017-11-09T06:00:42.261Z,9.60
2017-11-09T06:03:09.760Z,16.37
2017-11-09T06:05:37.266Z,15.53
2017-11-09T06:08:04.768Z,10.70
2017-11-09T06:10:32.267Z,14.23
2017-11-09T06:12:59.773Z,13.60
2017-11-09T06:15:27.305Z,13.40
2017-11-09T06:17:54.820Z,10.37
2017-11-09T06:20:22.319Z,12.67
2017-11-09T06:22:49.843Z,14.40
2017-11-09T06:25:17.505Z,11.97
2017-11-09T06:27:45.008Z,17.37
2017-11-09T06:30:12.522Z,12.13
2017-11-09T06:32:40.015Z,9.77
2017-11-09T06:35:07.547Z,11.10
2017-11-09T06:37:35.066Z,9.40
2017-11-09T06:40:02.578Z,11.80
2017-11-09T06:42:30.083Z,13.53
2017-11-09T06:44:57.593Z,14.23
2017-11-09T06:47:25.108Z,20.07
2017-11-09T06:49:52.633Z,13.27
2017-11-09T06:52:20.143Z,21.47
2017-11-09T06:54:47.640Z,13.10
2017-11-09T06:57:15.181Z,16.23
2017-11-09T06:59:42.692Z,14.67
2017-11-09T07:02:10.203Z,15.00
2017-11-09T07:04:37.711Z,12.27
2017-11-09T07:07:05.228Z,12.13
2017-11-09T07:09:32.727Z,16.30
2017-11-09T07:12:00.224Z,12.90
2017-11-09T07:14:27.722Z,11.50
2017-11-09T07:16:55.260Z,12.07
2017-11-09T07:19:22.780Z,12.80
2017-11-09T07:21:50.287Z,16.90
2017-11-09T07:24:17.791Z,12.13
2017-11-09T07:26:45.301Z,18.70
2017-11-09T07:29:12.798Z,14.90
2017-11-09T07:31:40.335Z,15.63
2017-11-09T07:34:07.837Z,19.73
2017-11-09T07:36:35.354Z,17.43
2017-11-09T07:39:02.987Z,16.03
2017-11-09T07:41:30.498Z,12.67
2017-11-09T07:43:57.999Z,12.53
2017-11-09T07:46:25.529Z,15.67
2017-11-09T07:48:53.055Z,24.33
2017-11-09T07:51:20.558Z,13.63
2017-11-09T07:53:48.052Z,14.53
2017-11-09T07:56:15.584Z,17.13
2017-11-09T07:58:43.081Z,15.43
2017-11-09T08:01:10.669Z,18.30
2017-11-09T08:03:38.189Z,17.27
2017-11-09T08:06:05.806Z,19.57
2017-11-09T08:08:33.372Z,17.60
2017-11-09T08:11:00.914Z,20.23
2017-11-09T08:13:28.431Z,70.33
2017-11-09T08:15:55.934Z,22.20
2017-11-09T08:18:23.448Z,22.70
2017-11-09T08:20:50.963Z,18.63
2017-11-09T08:23:18.488Z,21.13
2017-11-09T08:25:48.909Z,20.93
2017-11-09T08:28:18.734Z,22.00
2017-11-09T08:30:50.957Z,24.00
2017-11-09T08:33:20.118Z,25.87
2017-11-09T08:35:47.628Z,25.33
2017-11-09T08:38:15.122Z,21.80
2017-11-09T08:40:42.631Z,20.10
2017-11-09T08:43:10.138Z,22.77
2017-11-09T08:45:37.668Z,24.43
2017-11-09T08:48:05.197Z,16.43
2017-11-09T08:50:32.776Z,18.17
2017-11-09T08:53:00.315Z,21.67
2017-11-09T08:55:27.832Z,33.00
2017-11-09T08:57:55.356Z,20.97
2017-11-09T09:00:22.880Z,19.27
2017-11-09T09:02:50.415Z,16.10
2017-11-09T09:05:17.936Z,14.67
2017-11-09T09:07:45.443Z,18.83
2017-11-09T09:10:12.988Z,16.47
2017-11-09T09:12:40.507Z,19.07
2017-11-09T09:15:08.036Z,21.17
2017-11-09T09:17:35.558Z,19.27
2017-11-09T09:20:03.072Z,19.87
2017-11-09T09:22:50.464Z,18.80
2017-11-09T09:25:23.555Z,14.93
2017-11-09T09:30:56.116Z,14.53
2017-11-09T09:33:28.404Z,14.93
2017-11-09T09:36:00.029Z,15.83
2017-11-09T09:38:36.054Z,13.17
2017-11-09T09:41:03.555Z,14.20
2017-11-09T09:43:31.064Z,15.60
2017-11-09T09:45:58.578Z,21.57
2017-11-09T09:48:26.100Z,14.77
2017-11-09T09:50:53.644Z,15.53
2017-11-09T09:53:21.162Z,14.13
2017-11-09T09:55:48.677Z,12.63
2017-11-09T09:58:16.193Z,11.87
2017-11-09T10:00:43.714Z,12.77
2017-11-09T10:03:11.220Z,10.40
2017-11-09T10:05:38.717Z,12.10
2017-11-09T10:08:06.247Z,10.87
2017-11-09T10:10:33.739Z,10.73
2017-11-09T10:13:01.249Z,19.83
2017-11-09T10:15:28.756Z,12.90
2017-11-09T10:17:56.272Z,9.70
2017-11-09T10:20:23.768Z,9.87
2017-11-09T10:22:51.263Z,9.20
2017-11-09T10:25:18.748Z,9.57
2017-11-09T10:27:46.255Z,9.17
2017-11-09T10:30:13.831Z,13.67
2017-11-09T10:32:41.337Z,15.27
2017-11-09T10:35:08.848Z,12.83
2017-11-09T10:37:36.355Z,13.70
2017-11-09T10:40:03.879Z,11.40
2017-11-09T10:42:31.384Z,10.57
2017-11-09T10:44:58.875Z,14.00
2017-11-09T10:47:26.395Z,10.80
2017-11-09T10:49:53.894Z,14.70
2017-11-09T10:52:21.391Z,9.97
2017-11-09T10:54:48.899Z,11.40
2017-11-09T10:57:16.409Z,13.80
2017-11-09T10:59:43.935Z,12.77
2017-11-09T11:02:11.453Z,18.53
2017-11-09T11:04:38.965Z,13.47
2017-11-09T11:07:06.476Z,22.03
2017-11-09T11:09:33.971Z,13.43
2017-11-09T11:12:01.489Z,13.90
2017-11-09T11:14:29.004Z,26.20
2017-11-09T11:16:56.531Z,20.20
2017-11-09T11:19:24.050Z,20.60
2017-11-09T11:21:51.569Z,14.47
2017-11-09T11:24:19.062Z,10.10
2017-11-09T11:26:46.560Z,9.57
2017-11-09T11:29:14.059Z,8.47
2017-11-09T11:31:41.567Z,8.10
2017-11-09T11:34:09.103Z,7.87
2017-11-09T11:36:36.608Z,8.67
2017-11-09T11:39:04.168Z,10.67
2017-11-09T11:41:31.661Z,11.53
2017-11-09T11:43:59.188Z,8.30
2017-11-09T11:46:26.694Z,8.70
2017-11-09T11:48:54.195Z,9.13
2017-11-09T11:51:21.706Z,9.30
2017-11-09T11:53:49.234Z,8.40
2017-11-09T11:56:16.763Z,8.37
2017-11-09T11:58:44.267Z,8.40
2017-11-09T12:01:11.766Z,12.30
2017-11-09T12:03:39.296Z,12.07
2017-11-09T12:06:06.830Z,9.17
2017-11-09T12:08:34.338Z,6.17
2017-11-09T12:11:01.849Z,7.53
2017-11-09T12:13:29.365Z,7.70
2017-11-09T12:15:56.881Z,6.00
2017-11-09T12:18:24.373Z,6.00
2017-11-09T12:20:51.930Z,7.80
2017-11-09T12:23:19.445Z,6.17
2017-11-09T12:25:46.955Z,4.67
2017-11-09T12:28:14.457Z,6.53
2017-11-09T12:30:41.990Z,4.40
2017-11-09T12:33:09.515Z,7.80
2017-11-09T12:35:37.175Z,6.63
2017-11-09T12:38:04.717Z,5.10
2017-11-09T12:40:32.218Z,5.07
2017-11-09T12:42:59.752Z,5.17
2017-11-09T12:45:27.261Z,4.60
2017-11-09T12:47:54.762Z,4.47
2017-11-09T12:50:22.246Z,6.80
2017-11-09T12:52:49.763Z,5.60
2017-11-09T12:55:17.243Z,5.27
2017-11-09T12:57:44.739Z,6.50
2017-11-09T13:00:12.258Z,6.73
2017-11-09T13:02:39.779Z,7.57
2017-11-09T13:05:07.286Z,14.57
2017-11-09T13:07:34.794Z,10.53
2017-11-09T13:10:02.297Z,19.60
2017-11-09T13:12:29.827Z,19.77
2017-11-09T13:14:57.334Z,9.90
2017-11-09T13:17:24.854Z,7.40
2017-11-09T13:19:52.396Z,8.57
2017-11-09T13:22:19.910Z,6.53
2017-11-09T13:24:47.439Z,9.57
2017-11-09T13:27:14.960Z,13.13
2017-11-09T13:29:42.457Z,9.03
2017-11-09T13:32:09.957Z,6.30
2017-11-09T13:34:38.281Z,5.83
2017-11-09T13:37:05.798Z,6.20
2017-11-09T13:39:33.321Z,7.73
2017-11-09T13:42:00.853Z,38.83
2017-11-09T13:44:28.416Z,8.40
2017-11-09T13:46:55.906Z,6.90
2017-11-09T13:49:23.402Z,7.60
2017-11-09T13:51:50.916Z,13.60
2017-11-09T13:54:18.426Z,14.83
2017-11-09T13:56:45.960Z,9.77
2017-11-09T13:59:13.457Z,5.93
2017-11-09T14:01:40.973Z,7.57
2017-11-09T14:04:08.473Z,8.70
2017-11-09T14:06:35.970Z,6.67
2017-11-09T14:09:03.461Z,8.90
2017-11-09T14:11:30.993Z,6.80
2017-11-09T14:13:58.508Z,11.23
2017-11-09T14:16:26.013Z,11.80
2017-11-09T14:18:53.540Z,9.83
2017-11-09T14:21:21.056Z,7.17
2017-11-09T14:23:48.559Z,6.60
2017-11-09T14:26:16.080Z,5.77
2017-11-09T14:28:43.581Z,7.50
2017-11-09T14:31:11.072Z,7.93
2017-11-09T14:33:38.564Z,9.33
2017-11-09T14:36:06.090Z,26.17
2017-11-09T14:38:37.594Z,40.47
2017-11-09T14:41:05.133Z,12.27
2017-11-09T14:43:32.656Z,8.77
2017-11-09T14:46:00.207Z,8.17
2017-11-09T14:48:27.724Z,7.07
2017-11-09T14:50:55.238Z,8.17
2017-11-09T14:53:22.747Z,8.60
2017-11-09T14:55:50.281Z,8.00
2017-11-09T14:58:17.800Z,8.30
2017-11-09T15:00:45.331Z,12.83
2017-11-09T15:03:12.863Z,83.80
2017-11-09T15:05:40.414Z,93.93
2017-11-09T15:08:07.961Z,39.03
2017-11-09T15:10:35.483Z,21.63
2017-11-09T15:13:03.004Z,20.43
2017-11-09T15:15:30.531Z,12.47
2017-11-09T15:17:58.064Z,9.80
2017-11-09T15:20:25.564Z,9.00
2017-11-09T15:22:53.093Z,10.00
2017-11-09T15:25:20.603Z,14.70
2017-11-09T15:27:48.119Z,11.73
2017-11-09T15:30:15.650Z,16.73
2017-11-09T15:32:43.175Z,13.10
2017-11-09T15:35:10.731Z,12.00
2017-11-09T15:37:38.236Z,11.10
2017-11-09T15:40:05.802Z,11.97
2017-11-09T15:42:33.319Z,35.40
2017-11-09T15:45:00.841Z,51.20
2017-11-09T15:47:28.327Z,25.27
2017-11-09T15:49:55.856Z,14.90
2017-11-09T15:52:23.381Z,21.03
2017-11-09T15:54:50.909Z,32.70
2017-11-09T15:57:18.441Z,23.77
2017-11-09T15:59:45.963Z,16.77
2017-11-09T16:02:13.529Z,13.17
2017-11-09T16:04:41.040Z,11.43
2017-11-09T16:07:14.070Z,18.60
2017-11-09T16:09:41.574Z,12.33
2017-11-09T16:12:09.105Z,11.67
2017-11-09T16:14:36.668Z,10.63
2017-11-09T16:17:04.197Z,11.20
2017-11-09T16:19:31.714Z,12.63
2017-11-09T16:21:59.273Z,13.60
2017-11-09T16:24:26.808Z,18.63
2017-11-09T16:26:57.192Z,12.03
2017-11-09T16:29:24.734Z,14.17
2017-11-09T16:31:52.243Z,13.23
2017-11-09T16:34:19.764Z,14.47
2017-11-09T16:36:47.269Z,14.03
2017-11-09T16:39:14.767Z,12.20
2017-11-09T16:41:42.289Z,13.60
2017-11-09T16:44:09.803Z,12.30
2017-11-09T16:46:37.434Z,14.93
2017-11-09T16:49:04.969Z,11.40
2017-11-09T16:51:32.488Z,13.47
2017-11-09T16:54:00.798Z,12.27
2017-11-09T16:56:28.322Z,17.20
2017-11-09T16:58:55.823Z,12.13
2017-11-09T17:01:23.347Z,14.77
2017-11-09T17:03:50.871Z,13.93
2017-11-09T17:06:18.411Z,12.97
2017-11-09T17:08:45.921Z,13.60
2017-11-09T17:11:13.429Z,15.10
2017-11-09T17:13:40.946Z,14.73
2017-11-09T17:16:08.476Z,17.60
2017-11-09T17:18:35.976Z,17.77
2017-11-09T17:21:03.499Z,17.80
2017-11-09T17:23:31.042Z,23.60
2017-11-09T17:25:58.613Z,32.77
2017-11-09T17:28:26.131Z,29.00
2017-11-09T17:30:53.675Z,20.73
2017-11-09T17:33:21.197Z,21.00
2017-11-09T17:35:48.732Z,21.47
2017-11-09T17:38:16.263Z,92.33
2017-11-09T17:40:43.775Z,127.67
2017-11-09T17:43:11.473Z,70.87
2017-11-09T17:45:38.985Z,24.87
2017-11-09T17:48:06.677Z,23.60
2017-11-09T17:50:34.188Z,22.07
2017-11-09T17:53:01.920Z,19.03
2017-11-09T17:55:29.905Z,22.00
2017-11-09T17:57:57.638Z,24.00
2017-11-09T18:00:25.230Z,28.20
2017-11-09T18:02:52.744Z,21.57
2017-11-09T18:05:20.264Z,16.27
2017-11-09T18:07:48.279Z,18.57
2017-11-09T18:10:15.838Z,18.30
2017-11-09T18:12:43.690Z,18.80
2017-11-09T18:15:11.648Z,17.57
2017-11-09T18:17:39.180Z,23.63
2017-11-09T18:20:06.853Z,20.57
2017-11-09T18:22:37.312Z,21.07
2017-11-09T18:25:05.177Z,23.77
2017-11-09T18:27:32.940Z,24.57
2017-11-09T18:30:00.678Z,66.70
2017-11-09T18:32:28.233Z,28.80
2017-11-09T18:34:55.760Z,17.60
2017-11-09T18:37:23.559Z,19.53
2017-11-09T18:39:51.331Z,20.33
2017-11-09T18:42:19.200Z,19.73
2017-11-09T18:44:47.240Z,23.17
2017-11-09T18:47:14.895Z,21.43
2017-11-09T18:49:42.447Z,39.23
2017-11-09T18:52:10.003Z,61.07
2017-11-09T18:54:37.538Z,82.27
2017-11-09T18:57:05.291Z,51.67
2017-11-09T18:59:32.800Z,26.97
2017-11-09T19:02:00.319Z,20.20
2017-11-09T19:04:28.138Z,18.13
2017-11-09T19:06:55.818Z,25.03
2017-11-09T19:09:30.222Z,50.37
2017-11-09T19:11:57.779Z,36.90
2017-11-09T19:14:25.557Z,26.87
2017-11-09T19:16:53.130Z,28.30
2017-11-09T19:19:20.657Z,24.57
2017-11-09T19:21:48.472Z,32.17
2017-11-09T19:24:15.990Z,33.97
2017-11-09T19:26:43.492Z,28.90
2017-11-09T19:29:11.327Z,22.17
2017-11-09T19:31:39.296Z,28.17
2017-11-09T19:34:06.822Z,30.87
2017-11-09T19:36:34.823Z,21.33
2017-11-09T19:39:02.335Z,18.90
2017-11-09T19:41:29.853Z,22.20
2017-11-09T19:43:57.368Z,23.47
2017-11-09T19:46:24.881Z,37.77
2017-11-09T19:48:52.795Z,33.80
2017-11-09T19:51:20.700Z,92.93
2017-11-09T19:53:48.227Z,58.47
2017-11-09T19:56:16.224Z,33.60
2017-11-09T19:58:45.081Z,59.93
2017-11-09T20:01:13.690Z,55.37
2017-11-09T20:03:41.267Z,50.40
2017-11-09T20:06:09.651Z,47.37
2017-11-09T20:08:37.591Z,36.93
2017-11-09T20:11:05.338Z,31.17
2017-11-09T20:13:32.940Z,37.70
2017-11-09T20:16:00.921Z,34.30
2017-11-09T20:18:29.664Z,33.50
2017-11-09T20:20:57.468Z,38.67
2017-11-09T20:23:26.609Z,37.10
2017-11-09T20:25:54.506Z,23.23
2017-11-09T20:28:23.398Z,24.47
2017-11-09T20:30:51.749Z,29.20
2017-11-09T20:33:19.270Z,29.50
2017-11-09T20:35:47.818Z,23.10
2017-11-09T20:38:17.916Z,31.90
2017-11-09T20:40:45.496Z,27.57
2017-11-09T20:43:15.613Z,24.07
2017-11-09T20:45:43.677Z,18.20
2017-11-09T20:48:11.216Z,22.50
2017-11-09T20:50:38.759Z,19.83
2017-11-09T20:53:06.283Z,20.60
2017-11-09T20:55:34.232Z,27.57
2017-11-09T20:58:01.758Z,34.17
2017-11-09T21:00:29.957Z,31.23
2017-11-09T21:02:57.502Z,34.13
2017-11-09T21:05:26.222Z,20.60
2017-11-09T21:07:53.849Z,24.53
2017-11-09T21:10:21.510Z,23.13
2017-11-09T21:12:49.471Z,22.53
2017-11-09T21:15:16.992Z,22.13
2017-11-09T21:17:44.529Z,35.00
2017-11-09T21:20:12.348Z,52.03
2017-11-09T21:22:40.221Z,27.33
2017-11-09T21:25:07.746Z,26.20
2017-11-09T21:27:35.596Z,26.83
2017-11-09T21:30:03.147Z,21.20
2017-11-09T21:32:31.015Z,19.20
2017-11-09T21:34:58.853Z,18.33
2017-11-09T21:37:26.384Z,19.30
2017-11-09T21:39:53.955Z,14.87
2017-11-09T21:42:21.700Z,15.07
2017-11-09T21:44:49.213Z,17.23
2017-11-09T21:47:16.755Z,16.97
2017-11-09T21:49:44.289Z,14.63
2017-11-09T21:52:12.030Z,17.00
2017-11-09T21:54:39.535Z,12.87
2017-11-09T21:57:07.179Z,14.80
2017-11-09T21:59:34.699Z,23.50
2017-11-09T22:02:02.251Z,15.40
2017-11-09T22:04:29.811Z,29.17
2017-11-09T22:06:57.734Z,9.00
2017-11-09T22:09:25.518Z,10.40
2017-11-09T22:11:53.062Z,14.17
2017-11-09T22:14:20.563Z,9.83
2017-11-09T22:16:48.071Z,11.80
2017-11-09T22:19:15.567Z,9.43
2017-11-09T22:21:43.075Z,15.63
2017-11-09T22:24:10.584Z,15.20
2017-11-09T22:26:38.130Z,16.13
2017-11-09T22:29:05.698Z,14.07
2017-11-09T22:31:33.219Z,17.80
2017-11-09T22:34:00.730Z,8.93
2017-11-09T22:36:28.275Z,13.77
2017-11-09T22:38:55.886Z,12.07
2017-11-09T22:41:23.398Z,12.10
2017-11-09T22:43:50.979Z,13.80
2017-11-09T22:46:18.520Z,11.10
2017-11-09T22:48:46.034Z,8.83
2017-11-09T22:51:13.544Z,8.93
2017-11-09T22:53:41.060Z,9.73
2017-11-09T22:56:08.592Z,11.60
2017-11-09T22:58:36.090Z,10.30
2017-11-09T23:01:03.650Z,15.40
2017-11-09T23:03:31.160Z,13.63
2017-11-09T23:05:58.723Z,45.20
2017-11-09T23:08:26.239Z,11.97
2017-11-09T23:10:53.747Z,27.13
2017-11-09T23:13:21.623Z,23.03
2017-11-09T23:15:49.141Z,16.20
2017-11-09T23:18:16.690Z,15.23
2017-11-09T23:20:44.205Z,16.53
2017-11-09T23:23:11.710Z,19.93
2017-11-09T23:25:39.240Z,12.60
2017-11-09T23:28:06.750Z,13.30
2017-11-09T23:30:34.255Z,11.83
2017-11-09T23:33:01.770Z,11.73
2017-11-09T23:35:29.295Z,11.60
2017-11-09T23:37:56.828Z,76.57
2017-11-09T23:40:24.336Z,70.67
2017-11-09T23:42:51.848Z,22.10
2017-11-09T23:45:19.370Z,14.90
2017-11-09T23:47:46.916Z,16.77
2017-11-09T23:50:14.447Z,11.50
2017-11-09T23:52:41.955Z,14.57
2017-11-09T23:55:09.492Z,11.77
2017-11-09T23:57:37.013Z,21.97
